Austin Reinauer — WCX8055 — position and weather

sailwx.info

Track history (hours):
 
Tides and Currents Weather Stations Pressure Air Temp Water Temp Dewpoint Dewpoint Depression Visibility Wind Speed Wind Dir Waves Ship Positions

Austin Reinauer

Owner: REINAUER TRANSPORTATION CO, LP, STATEN ISLAND, NY. More information available from US FCC via Universal Licensing System and Coast Guard Vessel Documentation Center.

Last reported at 2017-Jun-26 18:59 UTC. Time now 2017-Jun-26 19:05 UTC.
Position N 40°38' W 074°08'.

Length 33 m; draft 6.7 m.

Type: . MMSI: 366739920.

Date/timePositionNaut miles runAvg speedWind from/ knotsBaromVisibWave heightAir tempDewpointWater temp
2017-Jun-26 18:59N 40°38' W 074°08'0 0.0
2017-Jun-26 18:30N 40°38' W 074°08'0 0.0
2017-Jun-26 18:00N 40°38' W 074°08'0 0.0
2017-Jun-26 17:30N 40°38' W 074°08'3 5.2
2017-Jun-26 17:00N 40°39' W 074°11'3 5.4
2017-Jun-26 16:30N 40°36' W 074°12'3 6.5
2017-Jun-26 16:00N 40°39' W 074°10'4 7.1
2017-Jun-26 15:31N 40°39' W 074°05'3 6.7
2017-Jun-26 15:00N 40°40' W 074°01'0 0.0
2017-Jun-26 14:30N 40°40' W 074°01'0 0.0
2017-Jun-26 13:30N 40°40' W 074°01'0 0.0
2017-Jun-26 13:00N 40°40' W 074°01'0 0.0
2017-Jun-26 12:30N 40°40' W 074°01'0 0.0
2017-Jun-26 12:00N 40°40' W 074°01'3 5.9
2017-Jun-26 11:30N 40°39' W 074°05'4 8.2
2017-Jun-26 11:00N 40°39' W 074°10'3 6.9
2017-Jun-26 10:30N 40°36' W 074°12'0 0.0
2017-Jun-26 10:00N 40°36' W 074°12'0 0.0
2017-Jun-26 09:30N 40°36' W 074°12'0 0.0
2017-Jun-26 08:59N 40°36' W 074°12'0 0.0
2017-Jun-26 08:30N 40°36' W 074°12'0 0.0
2017-Jun-26 08:00N 40°36' W 074°12'0 0.0
2017-Jun-26 07:30N 40°36' W 074°12'0 0.0
2017-Jun-26 07:00N 40°36' W 074°12'0 0.0
2017-Jun-26 06:30N 40°36' W 074°12'0 0.0
2017-Jun-26 05:59N 40°36' W 074°12'0 0.6
2017-Jun-26 05:30N 40°36' W 074°12'1 2.0
2017-Jun-26 05:00N 40°37' W 074°12'2 4.2
2017-Jun-26 04:30N 40°39' W 074°11'2 5.1
2017-Jun-26 04:00N 40°39' W 074°08'3 5.0
2017-Jun-26 03:30N 40°39' W 074°04'1 2.9
2017-Jun-26 03:00N 40°38' W 074°03'0 0.7
2017-Jun-26 02:30N 40°39' W 074°03'0 0.5
2017-Jun-26 02:00N 40°39' W 074°03'0 0.7
2017-Jun-26 01:30N 40°39' W 074°03'4 7.2
2017-Jun-26 01:00N 40°42' W 074°00'3 5.9
2017-Jun-26 00:30N 40°44' W 073°58'3 5.4
2017-Jun-25 23:58N 40°47' W 073°56'3 5.6
2017-Jun-25 23:28N 40°48' W 073°52'4 7.2
2017-Jun-25 22:53N 40°49' W 073°47'9 0.2
2017-Jun-24 10:34N 40°55' W 073°39'1 8.9
2017-Jun-24 10:26N 40°54' W 073°40'4 9.1
2017-Jun-24 10:00N 40°52' W 073°45'4 8.7
2017-Jun-24 09:30N 40°48' W 073°47'4 8.3
2017-Jun-24 09:01N 40°48' W 073°53'3 6.3
2017-Jun-24 08:30N 40°47' W 073°56'3 5.5
2017-Jun-24 08:00N 40°44' W 073°58'3 5.4
2017-Jun-24 07:31N 40°42' W 074°00'3 5.8
2017-Jun-24 07:01N 40°40' W 074°03'4 7.3
2017-Jun-24 06:30N 40°39' W 074°07'3 6.4
2017-Jun-24 06:01N 40°38' W 074°12'2 4.7
2017-Jun-24 05:30N 40°36' W 074°12'4 5.6
2017-Jun-24 04:47N 40°33' W 074°15'0 0.8
2017-Jun-24 04:30N 40°33' W 074°15'0 0.0
2017-Jun-24 02:01N 40°33' W 074°15'0 0.0
2017-Jun-24 01:57N 40°33' W 074°15'0 0.0
2017-Jun-24 01:10N 40°33' W 074°15'0 0.0
2017-Jun-24 00:57N 40°33' W 074°15'0 0.0
2017-Jun-23 21:47N 40°33' W 074°15'0 0.0
2017-Jun-23 21:29N 40°33' W 074°15'0 0.0
2017-Jun-23 20:58N 40°33' W 074°15'0 0.0
2017-Jun-23 20:26N 40°33' W 074°15'0 0.0
2017-Jun-23 20:00N 40°33' W 074°15'0 0.0
2017-Jun-23 19:29N 40°33' W 074°15'0 0.0
2017-Jun-23 19:00N 40°33' W 074°15'0 0.0
2017-Jun-23 18:28N 40°33' W 074°15'0 0.0
2017-Jun-23 18:00N 40°33' W 074°15'0 0.0
2017-Jun-23 17:30N 40°33' W 074°15'0 0.0
2017-Jun-23 17:00N 40°33' W 074°15'0 0.0
2017-Jun-23 16:15N 40°33' W 074°15'0 0.0
2017-Jun-23 15:59N 40°33' W 074°15'0 0.0
2017-Jun-23 15:30N 40°33' W 074°15'0 0.0
2017-Jun-23 12:40N 40°33' W 074°15'0 0.0
2017-Jun-23 12:30N 40°33' W 074°15'0 0.0
2017-Jun-23 11:34N 40°33' W 074°15'0 0.0
2017-Jun-23 11:18N 40°33' W 074°15'0 0.0
2017-Jun-23 11:00N 40°33' W 074°15'0 0.0
2017-Jun-23 10:30N 40°33' W 074°15'0 0.0
2017-Jun-23 09:59N 40°33' W 074°15'0 0.0
2017-Jun-23 09:18N 40°33' W 074°15'0 0.0
2017-Jun-23 09:00N 40°33' W 074°15'0 0.0
2017-Jun-23 08:27N 40°33' W 074°15'0 0.0
2017-Jun-23 07:56N 40°33' W 074°15'0 0.0
2017-Jun-23 07:30N 40°33' W 074°15'0 0.0
2017-Jun-23 07:00N 40°33' W 074°15'0 0.0
2017-Jun-23 06:26N 40°33' W 074°15'0 0.0
2017-Jun-23 05:33N 40°33' W 074°15'0 0.0
2017-Jun-23 05:29N 40°33' W 074°15'0 0.0
2017-Jun-23 03:58N 40°33' W 074°15'0 0.0
2017-Jun-22 21:35N 40°33' W 074°15'0 0.5
2017-Jun-22 21:27N 40°33' W 074°15'0 0.4
2017-Jun-22 20:48N 40°33' W 074°15'2 7.4
2017-Jun-22 20:29N 40°34' W 074°13'4 7.7
2017-Jun-22 20:00N 40°38' W 074°12'5 9.3
2017-Jun-22 19:30N 40°39' W 074°06'5 9.9
2017-Jun-22 19:00N 40°41' W 074°01'5 9.4
2017-Jun-22 18:30N 40°45' W 073°57'6 8.7
2017-Jun-22 17:48N 40°48' W 073°50'3 8.1
2017-Jun-22 17:29N 40°49' W 073°47'20 0.6
2017-Jun-21 09:18N 40°60' W 073°25'3 9.4
2017-Jun-21 09:00N 40°59' W 073°28'8 9.0
2017-Jun-21 08:05N 40°55' W 073°38'1 9.2
2017-Jun-21 08:00N 40°55' W 073°39'5 9.0
2017-Jun-21 07:29N 40°52' W 073°44'5 9.2
2017-Jun-21 06:59N 40°48' W 073°47'4 9.2
2017-Jun-21 06:30N 40°48' W 073°53'3 7.0
2017-Jun-21 06:00N 40°46' W 073°57'4 7.7
2017-Jun-21 05:31N 40°43' W 073°59'3 6.8
2017-Jun-21 05:00N 40°40' W 074°02'0 0.6
2017-Jun-21 04:30N 40°40' W 074°02'2 3.7
2017-Jun-21 04:00N 40°38' W 074°03'0 0.1
2017-Jun-21 03:30N 40°38' W 074°03'0 0.0
2017-Jun-21 03:00N 40°38' W 074°03'1 1.9
2017-Jun-21 02:30N 40°39' W 074°04'3 6.6
2017-Jun-21 01:59N 40°39' W 074°09'2 5.1
2017-Jun-21 01:30N 40°38' W 074°12'2 3.8
2017-Jun-21 01:00N 40°36' W 074°12'0 0.5
2017-Jun-21 00:23N 40°36' W 074°12'0 0.1
2017-Jun-20 21:56N 40°36' W 074°12'0 0.0
2017-Jun-20 17:39N 40°36' W 074°12'0 0.0
2017-Jun-20 17:21N 40°36' W 074°12'0 0.0
2017-Jun-20 15:47N 40°36' W 074°12'0 0.0
2017-Jun-20 13:49N 40°36' W 074°12'0 0.0
2017-Jun-20 11:49N 40°36' W 074°12'0 0.0
2017-Jun-20 11:19N 40°36' W 074°12'0 0.0
2017-Jun-20 10:55N 40°36' W 074°12'0 0.0
2017-Jun-20 10:10N 40°36' W 074°12'0 1.2
2017-Jun-20 09:54N 40°36' W 074°12'0 0.1
2017-Jun-20 04:03N 40°36' W 074°12'0 4.7
2017-Jun-20 04:00N 40°36' W 074°12'0 0.1
2017-Jun-20 01:58N 40°36' W 074°12'0 0.5
2017-Jun-20 01:31N 40°36' W 074°12'0 0.1
2017-Jun-20 01:00N 40°36' W 074°12'3 5.6
2017-Jun-20 00:31N 40°39' W 074°11'4 7.5
2017-Jun-20 00:01N 40°39' W 074°06'3 5.6
2017-Jun-19 23:31N 40°39' W 074°03'0 0.2
2017-Jun-19 23:00N 40°39' W 074°03'0 0.3
2017-Jun-19 22:31N 40°40' W 074°03'0 0.3
2017-Jun-19 21:58N 40°39' W 074°03'0 0.2
2017-Jun-19 21:28N 40°40' W 074°03'0 0.1
2017-Jun-19 20:55N 40°40' W 074°03'0 0.0
2017-Jun-19 20:28N 40°40' W 074°03'0 0.1
2017-Jun-19 19:58N 40°40' W 074°03'0 0.0
2017-Jun-19 19:28N 40°40' W 074°03'0 0.0
2017-Jun-19 18:58N 40°40' W 074°03'0 0.0
2017-Jun-19 18:28N 40°40' W 074°03'0 0.0
2017-Jun-19 17:58N 40°40' W 074°03'0 0.3
2017-Jun-19 17:28N 40°39' W 074°03'0 0.1
2017-Jun-19 16:58N 40°39' W 074°03'0 0.0
2017-Jun-19 16:28N 40°39' W 074°03'0 0.0
2017-Jun-19 15:58N 40°39' W 074°03'0 0.0
2017-Jun-19 15:28N 40°39' W 074°03'0 0.0
2017-Jun-19 14:58N 40°39' W 074°03'0 0.0
2017-Jun-19 14:28N 40°39' W 074°03'0 0.0
2017-Jun-19 13:28N 40°39' W 074°03'0 0.0
2017-Jun-19 12:58N 40°39' W 074°03'0 0.0
2017-Jun-19 12:28N 40°39' W 074°03'0 0.0
2017-Jun-19 11:58N 40°39' W 074°03'0 0.0
2017-Jun-19 11:28N 40°39' W 074°03'0 0.2
2017-Jun-19 10:58N 40°39' W 074°03'0 0.3
2017-Jun-19 10:28N 40°40' W 074°03'0 0.1
2017-Jun-19 09:58N 40°40' W 074°03'0 0.0
2017-Jun-19 09:28N 40°40' W 074°03'0 0.1
2017-Jun-19 09:01N 40°40' W 074°03'0 0.0
2017-Jun-19 08:31N 40°40' W 074°03'0 0.0
2017-Jun-19 07:58N 40°40' W 074°03'0 0.0
2017-Jun-19 07:30N 40°40' W 074°03'0 0.0
2017-Jun-19 07:00N 40°40' W 074°03'0 0.1
2017-Jun-19 06:30N 40°40' W 074°03'0 0.0
2017-Jun-19 06:00N 40°40' W 074°03'0 0.2
2017-Jun-19 05:30N 40°39' W 074°03'0 0.1
2017-Jun-19 05:00N 40°39' W 074°03'0 0.1
2017-Jun-19 04:30N 40°39' W 074°03'0 0.0
2017-Jun-19 04:00N 40°39' W 074°03'0 0.0
2017-Jun-19 03:30N 40°39' W 074°03'0 0.0
2017-Jun-19 03:00N 40°39' W 074°03'0 0.1
2017-Jun-19 02:30N 40°39' W 074°03'0 0.1
2017-Jun-19 01:57N 40°39' W 074°03'0 0.2
2017-Jun-19 01:30N 40°39' W 074°03'0 0.0
2017-Jun-19 01:00N 40°39' W 074°03'0 0.1
2017-Jun-19 00:30N 40°39' W 074°03'0 0.1
2017-Jun-19 00:00N 40°39' W 074°03'0 0.2
2017-Jun-18 23:30N 40°40' W 074°03'0 0.1
2017-Jun-18 23:00N 40°40' W 074°03'0 0.0
2017-Jun-18 22:30N 40°40' W 074°03'0 0.0
2017-Jun-18 22:00N 40°40' W 074°03'0 0.0
2017-Jun-18 21:30N 40°40' W 074°03'0 0.0
2017-Jun-18 21:00N 40°40' W 074°03'0 0.1
2017-Jun-18 20:30N 40°40' W 074°03'0 0.0
2017-Jun-18 20:00N 40°40' W 074°03'0 0.1
2017-Jun-18 19:30N 40°40' W 074°03'0 0.0
2017-Jun-18 19:00N 40°40' W 074°03'0 0.0
2017-Jun-18 18:30N 40°40' W 074°03'0 0.1
2017-Jun-18 18:00N 40°40' W 074°03'0 0.0
2017-Jun-18 17:27N 40°40' W 074°03'0 0.2
2017-Jun-18 17:00N 40°39' W 074°03'0 0.2
2017-Jun-18 16:30N 40°39' W 074°03'0 0.0
2017-Jun-18 16:00N 40°39' W 074°03'1 1.3
2017-Jun-18 15:30N 40°39' W 074°04'3 4.9
2017-Jun-18 14:50N 40°38' W 074°08'0 0.0
2017-Jun-18 13:56N 40°38' W 074°08'1 2.0
2017-Jun-18 13:30N 40°39' W 074°07'3 5.9
2017-Jun-18 12:59N 40°39' W 074°03'0 0.1
2017-Jun-18 12:29N 40°39' W 074°03'0 0.0
2017-Jun-18 11:59N 40°39' W 074°03'0 0.0
2017-Jun-18 11:29N 40°39' W 074°03'0 0.0
2017-Jun-18 10:59N 40°39' W 074°03'0 0.0
2017-Jun-18 10:20N 40°39' W 074°03'0 0.1
2017-Jun-18 09:59N 40°39' W 074°03'0 0.1
2017-Jun-18 09:29N 40°39' W 074°03'0 0.2
2017-Jun-18 08:59N 40°39' W 074°03'0 0.0
2017-Jun-18 08:29N 40°39' W 074°03'0 0.1
2017-Jun-18 07:59N 40°40' W 074°03'0 0.1
2017-Jun-18 07:29N 40°40' W 074°03'0 0.0
2017-Jun-18 06:59N 40°40' W 074°03'0 0.1
2017-Jun-18 06:29N 40°40' W 074°03'0 0.1
2017-Jun-18 05:59N 40°40' W 074°03'0 0.2
2017-Jun-18 05:26N 40°39' W 074°03'0 0.1
2017-Jun-18 04:59N 40°39' W 074°03'0 0.1
2017-Jun-18 04:29N 40°39' W 074°03'0 0.1
2017-Jun-18 03:59N 40°39' W 074°03'0 0.0
2017-Jun-18 03:29N 40°39' W 074°03'0 0.0
2017-Jun-18 02:59N 40°39' W 074°03'0 0.0
2017-Jun-18 02:29N 40°39' W 074°03'0 0.0
2017-Jun-18 01:59N 40°39' W 074°03'1 1.5
2017-Jun-18 01:30N 40°39' W 074°03'5 9.3
2017-Jun-18 01:00N 40°42' W 073°59'611.5
2017-Jun-18 00:29N 40°47' W 073°55'6 9.5
2017-Jun-17 23:50N 40°49' W 073°47'5310.4
2017-Jun-17 18:46N 41°06' W 072°40'411.0
2017-Jun-17 18:25N 41°07' W 072°35'511.2
2017-Jun-17 18:00N 41°08' W 072°29'511.1
2017-Jun-17 17:30N 41°10' W 072°23'610.5
2017-Jun-17 16:54N 41°13' W 072°15'95 8.7
2017-Jun-17 06:02N 42°07' W 070°31'110.4
2017-Jun-17 05:54N 42°09' W 070°32'410.1
2017-Jun-17 05:29N 42°12' W 070°35'510.0
2017-Jun-17 05:00N 42°16' W 070°39'5 9.9
2017-Jun-17 04:31N 42°19' W 070°44'5 9.8
2017-Jun-17 04:01N 42°22' W 070°49'5 9.1
2017-Jun-17 03:30N 42°22' W 070°56'4 7.9
2017-Jun-17 03:01N 42°20' W 071°01'3 6.3
2017-Jun-17 02:30N 42°23' W 071°03'0 0.6
2017-Jun-17 01:54N 42°23' W 071°03'0 0.0
2017-Jun-17 01:30N 42°23' W 071°03'0 0.0
2017-Jun-17 01:00N 42°23' W 071°03'0 0.0
2017-Jun-17 00:30N 42°23' W 071°03'0 0.0
2017-Jun-17 00:00N 42°23' W 071°03'0 0.0
2017-Jun-16 23:30N 42°23' W 071°03'0 0.0
2017-Jun-16 23:00N 42°23' W 071°03'0 0.0
2017-Jun-16 22:30N 42°23' W 071°03'0 0.0
2017-Jun-16 21:54N 42°23' W 071°03'0 0.0
2017-Jun-16 21:30N 42°23' W 071°03'0 0.0
2017-Jun-16 21:00N 42°23' W 071°03'0 0.0
2017-Jun-16 20:30N 42°23' W 071°03'0 0.0
2017-Jun-16 20:00N 42°23' W 071°03'0 0.0
2017-Jun-16 19:30N 42°23' W 071°03'  
Track history (hours):
 
Tides and Currents Weather Stations Pressure Air Temp Water Temp Dewpoint Dewpoint Depression Visibility Wind Speed Wind Dir Waves Ship Positions

Austin Reinauer

Owner: REINAUER TRANSPORTATION CO, LP, STATEN ISLAND, NY. More information available from US FCC via Universal Licensing System and Coast Guard Vessel Documentation Center.

Last reported at 2017-Jun-26 18:59 UTC. Time now 2017-Jun-26 19:05 UTC.
Position N 40°38' W 074°08'.

Length 33 m; draft 6.7 m.

Type: . MMSI: 366739920.

Date/timePositionNaut miles runAvg speedWind from/ knotsBaromVisibWave heightAir tempDewpointWater temp
2017-Jun-26 18:59N 40°38' W 074°08'0 0.0
2017-Jun-26 18:30N 40°38' W 074°08'0 0.0
2017-Jun-26 18:00N 40°38' W 074°08'0 0.0
2017-Jun-26 17:30N 40°38' W 074°08'3 5.2
2017-Jun-26 17:00N 40°39' W 074°11'3 5.4
2017-Jun-26 16:30N 40°36' W 074°12'3 6.5
2017-Jun-26 16:00N 40°39' W 074°10'4 7.1
2017-Jun-26 15:31N 40°39' W 074°05'3 6.7
2017-Jun-26 15:00N 40°40' W 074°01'0 0.0
2017-Jun-26 14:30N 40°40' W 074°01'0 0.0
2017-Jun-26 13:30N 40°40' W 074°01'0 0.0
2017-Jun-26 13:00N 40°40' W 074°01'0 0.0
2017-Jun-26 12:30N 40°40' W 074°01'0 0.0
2017-Jun-26 12:00N 40°40' W 074°01'3 5.9
2017-Jun-26 11:30N 40°39' W 074°05'4 8.2
2017-Jun-26 11:00N 40°39' W 074°10'3 6.9
2017-Jun-26 10:30N 40°36' W 074°12'0 0.0
2017-Jun-26 10:00N 40°36' W 074°12'0 0.0
2017-Jun-26 09:30N 40°36' W 074°12'0 0.0
2017-Jun-26 08:59N 40°36' W 074°12'0 0.0
2017-Jun-26 08:30N 40°36' W 074°12'0 0.0
2017-Jun-26 08:00N 40°36' W 074°12'0 0.0
2017-Jun-26 07:30N 40°36' W 074°12'0 0.0
2017-Jun-26 07:00N 40°36' W 074°12'0 0.0
2017-Jun-26 06:30N 40°36' W 074°12'0 0.0
2017-Jun-26 05:59N 40°36' W 074°12'0 0.6
2017-Jun-26 05:30N 40°36' W 074°12'1 2.0
2017-Jun-26 05:00N 40°37' W 074°12'2 4.2
2017-Jun-26 04:30N 40°39' W 074°11'2 5.1
2017-Jun-26 04:00N 40°39' W 074°08'3 5.0
2017-Jun-26 03:30N 40°39' W 074°04'1 2.9
2017-Jun-26 03:00N 40°38' W 074°03'0 0.7
2017-Jun-26 02:30N 40°39' W 074°03'0 0.5
2017-Jun-26 02:00N 40°39' W 074°03'0 0.7
2017-Jun-26 01:30N 40°39' W 074°03'4 7.2
2017-Jun-26 01:00N 40°42' W 074°00'3 5.9
2017-Jun-26 00:30N 40°44' W 073°58'3 5.4
2017-Jun-25 23:58N 40°47' W 073°56'3 5.6
2017-Jun-25 23:28N 40°48' W 073°52'4 7.2
2017-Jun-25 22:53N 40°49' W 073°47'9 0.2
2017-Jun-24 10:34N 40°55' W 073°39'1 8.9
2017-Jun-24 10:26N 40°54' W 073°40'4 9.1
2017-Jun-24 10:00N 40°52' W 073°45'4 8.7
2017-Jun-24 09:30N 40°48' W 073°47'4 8.3
2017-Jun-24 09:01N 40°48' W 073°53'3 6.3
2017-Jun-24 08:30N 40°47' W 073°56'3 5.5
2017-Jun-24 08:00N 40°44' W 073°58'3 5.4
2017-Jun-24 07:31N 40°42' W 074°00'3 5.8
2017-Jun-24 07:01N 40°40' W 074°03'4 7.3
2017-Jun-24 06:30N 40°39' W 074°07'3 6.4
2017-Jun-24 06:01N 40°38' W 074°12'2 4.7
2017-Jun-24 05:30N 40°36' W 074°12'4 5.6
2017-Jun-24 04:47N 40°33' W 074°15'0 0.8
2017-Jun-24 04:30N 40°33' W 074°15'0 0.0
2017-Jun-24 02:01N 40°33' W 074°15'0 0.0
2017-Jun-24 01:57N 40°33' W 074°15'0 0.0
2017-Jun-24 01:10N 40°33' W 074°15'0 0.0
2017-Jun-24 00:57N 40°33' W 074°15'0 0.0
2017-Jun-23 21:47N 40°33' W 074°15'0 0.0
2017-Jun-23 21:29N 40°33' W 074°15'0 0.0
2017-Jun-23 20:58N 40°33' W 074°15'0 0.0
2017-Jun-23 20:26N 40°33' W 074°15'0 0.0
2017-Jun-23 20:00N 40°33' W 074°15'0 0.0
2017-Jun-23 19:29N 40°33' W 074°15'0 0.0
2017-Jun-23 19:00N 40°33' W 074°15'0 0.0
2017-Jun-23 18:28N 40°33' W 074°15'0 0.0
2017-Jun-23 18:00N 40°33' W 074°15'0 0.0
2017-Jun-23 17:30N 40°33' W 074°15'0 0.0
2017-Jun-23 17:00N 40°33' W 074°15'0 0.0
2017-Jun-23 16:15N 40°33' W 074°15'0 0.0
2017-Jun-23 15:59N 40°33' W 074°15'0 0.0
2017-Jun-23 15:30N 40°33' W 074°15'0 0.0
2017-Jun-23 12:40N 40°33' W 074°15'0 0.0
2017-Jun-23 12:30N 40°33' W 074°15'0 0.0
2017-Jun-23 11:34N 40°33' W 074°15'0 0.0
2017-Jun-23 11:18N 40°33' W 074°15'0 0.0
2017-Jun-23 11:00N 40°33' W 074°15'0 0.0
2017-Jun-23 10:30N 40°33' W 074°15'0 0.0
2017-Jun-23 09:59N 40°33' W 074°15'0 0.0
2017-Jun-23 09:18N 40°33' W 074°15'0 0.0
2017-Jun-23 09:00N 40°33' W 074°15'0 0.0
2017-Jun-23 08:27N 40°33' W 074°15'0 0.0
2017-Jun-23 07:56N 40°33' W 074°15'0 0.0
2017-Jun-23 07:30N 40°33' W 074°15'0 0.0
2017-Jun-23 07:00N 40°33' W 074°15'0 0.0
2017-Jun-23 06:26N 40°33' W 074°15'0 0.0
2017-Jun-23 05:33N 40°33' W 074°15'0 0.0
2017-Jun-23 05:29N 40°33' W 074°15'0 0.0
2017-Jun-23 03:58N 40°33' W 074°15'0 0.0
2017-Jun-22 21:35N 40°33' W 074°15'0 0.5
2017-Jun-22 21:27N 40°33' W 074°15'0 0.4
2017-Jun-22 20:48N 40°33' W 074°15'2 7.4
2017-Jun-22 20:29N 40°34' W 074°13'4 7.7
2017-Jun-22 20:00N 40°38' W 074°12'5 9.3
2017-Jun-22 19:30N 40°39' W 074°06'5 9.9
2017-Jun-22 19:00N 40°41' W 074°01'5 9.4
2017-Jun-22 18:30N 40°45' W 073°57'6 8.7
2017-Jun-22 17:48N 40°48' W 073°50'3 8.1
2017-Jun-22 17:29N 40°49' W 073°47'20 0.6
2017-Jun-21 09:18N 40°60' W 073°25'3 9.4
2017-Jun-21 09:00N 40°59' W 073°28'8 9.0
2017-Jun-21 08:05N 40°55' W 073°38'1 9.2
2017-Jun-21 08:00N 40°55' W 073°39'5 9.0
2017-Jun-21 07:29N 40°52' W 073°44'5 9.2
2017-Jun-21 06:59N 40°48' W 073°47'4 9.2
2017-Jun-21 06:30N 40°48' W 073°53'3 7.0
2017-Jun-21 06:00N 40°46' W 073°57'4 7.7
2017-Jun-21 05:31N 40°43' W 073°59'3 6.8
2017-Jun-21 05:00N 40°40' W 074°02'0 0.6
2017-Jun-21 04:30N 40°40' W 074°02'2 3.7
2017-Jun-21 04:00N 40°38' W 074°03'0 0.1
2017-Jun-21 03:30N 40°38' W 074°03'0 0.0
2017-Jun-21 03:00N 40°38' W 074°03'1 1.9
2017-Jun-21 02:30N 40°39' W 074°04'3 6.6
2017-Jun-21 01:59N 40°39' W 074°09'2 5.1
2017-Jun-21 01:30N 40°38' W 074°12'2 3.8
2017-Jun-21 01:00N 40°36' W 074°12'0 0.5
2017-Jun-21 00:23N 40°36' W 074°12'0 0.1
2017-Jun-20 21:56N 40°36' W 074°12'0 0.0
2017-Jun-20 17:39N 40°36' W 074°12'0 0.0
2017-Jun-20 17:21N 40°36' W 074°12'0 0.0
2017-Jun-20 15:47N 40°36' W 074°12'0 0.0
2017-Jun-20 13:49N 40°36' W 074°12'0 0.0
2017-Jun-20 11:49N 40°36' W 074°12'0 0.0
2017-Jun-20 11:19N 40°36' W 074°12'0 0.0
2017-Jun-20 10:55N 40°36' W 074°12'0 0.0
2017-Jun-20 10:10N 40°36' W 074°12'0 1.2
2017-Jun-20 09:54N 40°36' W 074°12'0 0.1
2017-Jun-20 04:03N 40°36' W 074°12'0 4.7
2017-Jun-20 04:00N 40°36' W 074°12'0 0.1
2017-Jun-20 01:58N 40°36' W 074°12'0 0.5
2017-Jun-20 01:31N 40°36' W 074°12'0 0.1
2017-Jun-20 01:00N 40°36' W 074°12'3 5.6
2017-Jun-20 00:31N 40°39' W 074°11'4 7.5
2017-Jun-20 00:01N 40°39' W 074°06'3 5.6
2017-Jun-19 23:31N 40°39' W 074°03'0 0.2
2017-Jun-19 23:00N 40°39' W 074°03'0 0.3
2017-Jun-19 22:31N 40°40' W 074°03'0 0.3
2017-Jun-19 21:58N 40°39' W 074°03'0 0.2
2017-Jun-19 21:28N 40°40' W 074°03'0 0.1
2017-Jun-19 20:55N 40°40' W 074°03'0 0.0
2017-Jun-19 20:28N 40°40' W 074°03'0 0.1
2017-Jun-19 19:58N 40°40' W 074°03'0 0.0
2017-Jun-19 19:28N 40°40' W 074°03'0 0.0
2017-Jun-19 18:58N 40°40' W 074°03'0 0.0
2017-Jun-19 18:28N 40°40' W 074°03'0 0.0
2017-Jun-19 17:58N 40°40' W 074°03'0 0.3
2017-Jun-19 17:28N 40°39' W 074°03'0 0.1
2017-Jun-19 16:58N 40°39' W 074°03'0 0.0
2017-Jun-19 16:28N 40°39' W 074°03'0 0.0
2017-Jun-19 15:58N 40°39' W 074°03'0 0.0
2017-Jun-19 15:28N 40°39' W 074°03'0 0.0
2017-Jun-19 14:58N 40°39' W 074°03'0 0.0
2017-Jun-19 14:28N 40°39' W 074°03'0 0.0
2017-Jun-19 13:28N 40°39' W 074°03'0 0.0
2017-Jun-19 12:58N 40°39' W 074°03'0 0.0
2017-Jun-19 12:28N 40°39' W 074°03'0 0.0
2017-Jun-19 11:58N 40°39' W 074°03'0 0.0
2017-Jun-19 11:28N 40°39' W 074°03'0 0.2
2017-Jun-19 10:58N 40°39' W 074°03'0 0.3
2017-Jun-19 10:28N 40°40' W 074°03'0 0.1
2017-Jun-19 09:58N 40°40' W 074°03'0 0.0
2017-Jun-19 09:28N 40°40' W 074°03'0 0.1
2017-Jun-19 09:01N 40°40' W 074°03'0 0.0
2017-Jun-19 08:31N 40°40' W 074°03'0 0.0
2017-Jun-19 07:58N 40°40' W 074°03'0 0.0
2017-Jun-19 07:30N 40°40' W 074°03'0 0.0
2017-Jun-19 07:00N 40°40' W 074°03'0 0.1
2017-Jun-19 06:30N 40°40' W 074°03'0 0.0
2017-Jun-19 06:00N 40°40' W 074°03'0 0.2
2017-Jun-19 05:30N 40°39' W 074°03'0 0.1
2017-Jun-19 05:00N 40°39' W 074°03'0 0.1
2017-Jun-19 04:30N 40°39' W 074°03'0 0.0
2017-Jun-19 04:00N 40°39' W 074°03'0 0.0
2017-Jun-19 03:30N 40°39' W 074°03'0 0.0
2017-Jun-19 03:00N 40°39' W 074°03'0 0.1
2017-Jun-19 02:30N 40°39' W 074°03'0 0.1
2017-Jun-19 01:57N 40°39' W 074°03'0 0.2
2017-Jun-19 01:30N 40°39' W 074°03'0 0.0
2017-Jun-19 01:00N 40°39' W 074°03'0 0.1
2017-Jun-19 00:30N 40°39' W 074°03'0 0.1
2017-Jun-19 00:00N 40°39' W 074°03'0 0.2
2017-Jun-18 23:30N 40°40' W 074°03'0 0.1
2017-Jun-18 23:00N 40°40' W 074°03'0 0.0
2017-Jun-18 22:30N 40°40' W 074°03'0 0.0
2017-Jun-18 22:00N 40°40' W 074°03'0 0.0
2017-Jun-18 21:30N 40°40' W 074°03'0 0.0
2017-Jun-18 21:00N 40°40' W 074°03'0 0.1
2017-Jun-18 20:30N 40°40' W 074°03'0 0.0
2017-Jun-18 20:00N 40°40' W 074°03'0 0.1
2017-Jun-18 19:30N 40°40' W 074°03'0 0.0
2017-Jun-18 19:00N 40°40' W 074°03'0 0.0
2017-Jun-18 18:30N 40°40' W 074°03'0 0.1
2017-Jun-18 18:00N 40°40' W 074°03'0 0.0
2017-Jun-18 17:27N 40°40' W 074°03'0 0.2
2017-Jun-18 17:00N 40°39' W 074°03'0 0.2
2017-Jun-18 16:30N 40°39' W 074°03'0 0.0
2017-Jun-18 16:00N 40°39' W 074°03'1 1.3
2017-Jun-18 15:30N 40°39' W 074°04'3 4.9
2017-Jun-18 14:50N 40°38' W 074°08'0 0.0
2017-Jun-18 13:56N 40°38' W 074°08'1 2.0
2017-Jun-18 13:30N 40°39' W 074°07'3 5.9
2017-Jun-18 12:59N 40°39' W 074°03'0 0.1
2017-Jun-18 12:29N 40°39' W 074°03'0 0.0
2017-Jun-18 11:59N 40°39' W 074°03'0 0.0
2017-Jun-18 11:29N 40°39' W 074°03'0 0.0
2017-Jun-18 10:59N 40°39' W 074°03'0 0.0
2017-Jun-18 10:20N 40°39' W 074°03'0 0.1
2017-Jun-18 09:59N 40°39' W 074°03'0 0.1
2017-Jun-18 09:29N 40°39' W 074°03'0 0.2
2017-Jun-18 08:59N 40°39' W 074°03'0 0.0
2017-Jun-18 08:29N 40°39' W 074°03'0 0.1
2017-Jun-18 07:59N 40°40' W 074°03'0 0.1
2017-Jun-18 07:29N 40°40' W 074°03'0 0.0
2017-Jun-18 06:59N 40°40' W 074°03'0 0.1
2017-Jun-18 06:29N 40°40' W 074°03'0 0.1
2017-Jun-18 05:59N 40°40' W 074°03'0 0.2
2017-Jun-18 05:26N 40°39' W 074°03'0 0.1
2017-Jun-18 04:59N 40°39' W 074°03'0 0.1
2017-Jun-18 04:29N 40°39' W 074°03'0 0.1
2017-Jun-18 03:59N 40°39' W 074°03'0 0.0
2017-Jun-18 03:29N 40°39' W 074°03'0 0.0
2017-Jun-18 02:59N 40°39' W 074°03'0 0.0
2017-Jun-18 02:29N 40°39' W 074°03'0 0.0
2017-Jun-18 01:59N 40°39' W 074°03'1 1.5
2017-Jun-18 01:30N 40°39' W 074°03'5 9.3
2017-Jun-18 01:00N 40°42' W 073°59'611.5
2017-Jun-18 00:29N 40°47' W 073°55'6 9.5
2017-Jun-17 23:50N 40°49' W 073°47'5310.4
2017-Jun-17 18:46N 41°06' W 072°40'411.0
2017-Jun-17 18:25N 41°07' W 072°35'511.2
2017-Jun-17 18:00N 41°08' W 072°29'511.1
2017-Jun-17 17:30N 41°10' W 072°23'610.5
2017-Jun-17 16:54N 41°13' W 072°15'95 8.7
2017-Jun-17 06:02N 42°07' W 070°31'110.4
2017-Jun-17 05:54N 42°09' W 070°32'410.1
2017-Jun-17 05:29N 42°12' W 070°35'510.0
2017-Jun-17 05:00N 42°16' W 070°39'5 9.9
2017-Jun-17 04:31N 42°19' W 070°44'5 9.8
2017-Jun-17 04:01N 42°22' W 070°49'5 9.1
2017-Jun-17 03:30N 42°22' W 070°56'4 7.9
2017-Jun-17 03:01N 42°20' W 071°01'3 6.3
2017-Jun-17 02:30N 42°23' W 071°03'0 0.6
2017-Jun-17 01:54N 42°23' W 071°03'0 0.0
2017-Jun-17 01:30N 42°23' W 071°03'0 0.0
2017-Jun-17 01:00N 42°23' W 071°03'0 0.0
2017-Jun-17 00:30N 42°23' W 071°03'0 0.0
2017-Jun-17 00:00N 42°23' W 071°03'0 0.0
2017-Jun-16 23:30N 42°23' W 071°03'0 0.0
2017-Jun-16 23:00N 42°23' W 071°03'0 0.0
2017-Jun-16 22:30N 42°23' W 071°03'0 0.0
2017-Jun-16 21:54N 42°23' W 071°03'0 0.0
2017-Jun-16 21:30N 42°23' W 071°03'0 0.0
2017-Jun-16 21:00N 42°23' W 071°03'0 0.0
2017-Jun-16 20:30N 42°23' W 071°03'0 0.0
2017-Jun-16 20:00N 42°23' W 071°03'0 0.0
2017-Jun-16 19:30N 42°23' W 071°03'  

Dump ship's entire track history